Latest Weather Observations for St Lawrence

IDQ60801

Issued at 8:02 pm EST Sunday 26 February 2017 (issued every 30 minutes, with the page automatically refreshed every 10 minutes)

About weather observations | Map of weather stations | Latest weather observations for QLD | Other Formats
Station Details ID: 033210 Name: ST LAWRENCE Lat: -22.35 Lon: 149.52 Height: 9.19 m
Data from the previous 72 hours. | See also: Recent months at St Lawrence
Date/Time
EST
Temp
°C
App
Temp
°C
Dew
Point
°C
Rel
Hum
%
Delta-T
°C
Wind Press
QNH
hPa
Press
MSL
hPa
Rain since
9am
mm
Dir  Spd
km/h
Gust
km/h
Spd
kts
Gust
kts
26/07:30pm 27.5 28.0 17.4 54 6.4 ENE 11 20 6 11 1012.1 1012.0 0.0
26/07:00pm 28.2 28.0 16.8 50 7.1 NE 13 22 7 12 1011.5 1011.4 0.0
26/06:30pm 28.7 28.7 18.2 53 6.7 NE 15 22 8 12 1011.0 1010.9 0.0
26/06:00pm 28.8 29.1 20.5 61 5.5 NNE 19 32 10 17 1010.5 1010.4 0.0
26/05:30pm 29.3 29.5 21.3 62 5.3 NNE 22 30 12 16 1010.0 1009.9 0.0
26/05:00pm 29.8 29.6 21.2 60 5.8 NNE 24 33 13 18 1010.0 1009.9 0.0
26/04:30pm 30.3 29.5 20.8 56 6.3 NNE 26 37 14 20 1009.8 1009.7 0.0
26/04:00pm 30.5 29.6 20.7 55 6.5 NNE 26 35 14 19 1009.7 1009.6 0.0
26/03:30pm 31.9 31.2 20.2 50 7.8 NNE 24 32 13 17 1009.5 1009.4 0.0
26/03:00pm 32.6 31.7 19.1 44 8.8 NNE 22 30 12 16 1009.6 1009.5 0.0
26/02:30pm 32.8 32.1 18.6 43 9.2 NNE 20 28 11 15 1009.6 1009.5 0.0
26/02:00pm 32.6 31.1 17.6 40 9.6 NNE 22 32 12 17 1009.7 1009.6 0.0
26/01:30pm 33.0 33.6 17.6 40 9.9 NNE 11 17 6 9 1010.3 1010.2 0.0
26/01:00pm 32.4 31.1 15.8 36 10.4 NE 17 28 9 15 1010.7 1010.6 0.0
26/12:30pm 32.9 32.5 16.3 37 10.5 NE 13 26 7 14 1011.3 1011.2 0.0
26/12:00pm 33.0 32.8 16.8 38 10.3 ENE 13 24 7 13 1011.8 1011.7 0.0
26/11:30am 31.6 31.3 16.4 40 9.5 E 13 22 7 12 1012.2 1012.1 0.0
26/11:00am 31.2 31.0 16.8 42 9.1 E 13 22 7 12 1012.7 1012.6 0.0
26/10:30am 31.3 30.7 17.6 44 8.7 E 17 30 9 16 1013.0 1012.9 0.0
26/10:00am 30.0 30.1 17.5 47 7.9 ESE 13 24 7 13 1013.3 1013.2 0.0
26/09:30am 29.8 29.2 17.6 48 7.8 ESE 17 28 9 15 1013.6 1013.5 0.0
26/09:00am 28.8 28.8 18.0 52 6.9 ESE 15 28 8 15 1013.6 1013.5 0.0
26/08:30am 27.9 27.7 17.7 53 6.4 SE 15 22 8 12 1013.7 1013.6 0.0
26/08:00am 27.3 28.4 18.9 60 5.4 SSE 11 19 6 10 1013.5 1013.4 0.0
26/07:30am 25.7 27.7 20.0 71 3.7 S 9 15 5 8 1013.3 1013.2 0.0
26/07:00am 23.7 26.2 20.2 81 2.3 SSE 7 11 4 6 1012.8 1012.7 0.0
26/06:30am 22.5 24.5 19.9 85 1.7 S 9 13 5 7 1012.5 1012.4 0.0
26/06:00am 22.1 24.3 19.6 86 1.6 S 7 9 4 5 1012.2 1012.1 0.0
26/05:30am 22.2 24.0 19.6 85 1.7 S 9 9 5 5 1011.8 1011.7 0.0
26/05:00am 22.5 24.7 19.7 84 1.8 S 7 9 4 5 1011.8 1011.7 0.0
26/04:30am 22.9 25.1 19.7 82 2.1 S 7 11 4 6 1011.3 1011.2 0.0
26/04:00am 23.3 25.4 20.1 82 2.1 S 9 13 5 7 1011.2 1011.1 0.0
26/03:30am 22.9 25.0 20.1 84 1.8 S 9 13 5 7 1011.1 1011.0 0.0
26/03:00am 23.0 25.4 20.1 84 1.9 S 7 9 4 5 1010.9 1010.8 0.0
26/02:30am 23.2 25.2 20.0 82 2.1 S 9 11 5 6 1011.1 1011.0 0.0
26/02:00am 23.7 26.3 20.4 82 2.1 S 7 11 4 6 1011.0 1010.9 0.0
26/01:30am 23.8 26.4 20.1 80 2.4 SSW 6 9 3 5 1011.0 1010.9 0.0
26/01:00am 24.6 27.1 20.3 77 2.8 S 7 9 4 5 1011.8 1011.7 0.0
26/12:30am 25.0 27.6 20.5 76 2.9 S 7 9 4 5 1012.3 1012.2 0.0
26/12:00am 25.3 28.5 21.2 78 2.7 SSE 6 9 3 5 1012.4 1012.3 0.0
 
Date/Time
EST
Temp
°C
App
Temp
°C
Dew
Point
°C
Rel
Hum
%
Delta-T
°C
Wind Press
QNH
hPa
Press
MSL
hPa
Rain since
9am
mm
Dir  Spd
km/h
Gust
km/h
Spd
kts
Gust
kts
25/11:30pm 25.5 28.7 21.2 77 2.8 SE 6 7 3 4 1012.6 1012.5 0.0
25/11:00pm 26.0 29.3 21.4 76 3.1 ESE 6 7 3 4 1012.7 1012.6 0.0
25/10:30pm 26.3 29.4 21.5 75 3.2 ESE 7 11 4 6 1012.7 1012.6 0.0
25/10:00pm 26.6 29.3 21.4 73 3.5 E 9 17 5 9 1012.6 1012.5 0.0
25/09:30pm 26.8 29.5 21.3 72 3.7 E 9 17 5 9 1012.4 1012.3 0.0
25/09:00pm 27.0 29.5 21.1 70 3.9 E 9 13 5 7 1012.3 1012.2 0.0
25/08:30pm 27.3 29.7 20.9 68 4.2 ENE 9 17 5 9 1012.0 1011.9 0.0
25/08:00pm 27.6 30.0 20.9 67 4.4 NE 9 15 5 8 1011.9 1011.8 0.0
25/07:30pm 28.0 29.4 21.1 66 4.6 NE 15 24 8 13 1011.5 1011.4 0.0
25/07:00pm 28.3 30.2 21.3 65 4.7 NE 13 19 7 10 1011.2 1011.1 0.0
25/06:30pm 28.8 29.7 21.6 65 4.8 NNE 19 28 10 15 1011.0 1010.9 0.0
25/06:00pm 29.5 30.1 21.4 61 5.4 NNE 20 30 11 16 1010.6 1010.5 0.0
25/05:30pm 30.2 30.6 21.0 58 6.1 NNE 20 30 11 16 1010.3 1010.2 0.0
25/05:00pm 30.8 31.1 20.7 55 6.7 NNE 20 30 11 16 1010.2 1010.1 0.0
25/04:30pm 31.1 31.4 20.7 54 6.9 NNE 20 30 11 16 1009.9 1009.8 0.0
25/04:00pm 31.6 31.5 19.9 50 7.7 NNE 20 32 11 17 1009.7 1009.6 0.0
25/03:30pm 32.0 30.7 18.2 43 8.9 NNE 22 28 12 15 1009.6 1009.5 0.0
25/03:00pm 32.7 31.9 18.1 42 9.4 NNE 19 32 10 17 1009.6 1009.5 0.0
25/02:30pm 33.3 31.4 16.6 36 10.6 NNE 22 30 12 16 1009.8 1009.7 0.0
25/02:00pm 33.3 32.7 16.6 36 10.6 ENE 15 24 8 13 1010.5 1010.4 0.0
25/01:30pm 33.2 31.3 15.2 33 11.2 ENE 19 30 10 16 1011.0 1010.9 0.0
25/01:00pm 33.5 31.7 14.5 31 11.7 SE 17 22 9 12 1011.6 1011.5 0.0
25/12:30pm 33.3 32.4 14.8 32 11.4 ENE 13 20 7 11 1012.0 1011.9 0.0
25/12:00pm 32.8 32.6 16.6 38 10.2 E 13 24 7 13 1012.5 1012.4 0.0
25/11:30am 31.7 31.4 16.4 39 9.6 E 13 24 7 13 1013.0 1012.9 0.0
25/11:00am 31.5 31.6 16.6 40 9.4 E 11 20 6 11 1013.3 1013.2 0.0
25/10:30am 30.8 30.8 17.1 43 8.7 SE 13 20 7 11 1013.7 1013.6 0.0
25/10:00am 30.3 31.5 19.0 50 7.3 ESE 11 20 6 11 1014.0 1013.9 0.0
25/09:30am 29.6 29.6 18.1 50 7.4 SE 15 26 8 14 1014.1 1014.0 0.0
25/09:00am 29.0 29.8 19.0 54 6.5 SE 13 20 7 11 1014.1 1014.0 0.0
25/08:30am 28.5 30.2 20.2 60 5.5 SSE 11 22 6 12 1014.1 1014.0 0.0
25/08:00am 27.2 30.0 21.5 71 3.8 S 9 13 5 7 1014.1 1014.0 0.0
25/07:30am 26.5 29.5 21.9 76 3.1 S 9 13 5 7 1014.1 1014.0 0.0
25/07:00am 25.4 27.9 21.7 80 2.5 S 11 15 6 8 1013.9 1013.8 0.0
25/06:30am 24.0 26.7 21.3 85 1.8 S 9 11 5 6 1013.3 1013.2 0.0
25/06:00am 23.5 25.9 20.8 85 1.8 S 9 11 5 6 1012.9 1012.8 0.0
25/05:30am 23.6 26.0 20.9 85 1.8 S 9 13 5 7 1012.8 1012.7 0.0
25/05:00am 23.8 26.2 20.9 84 1.9 S 9 11 5 6 1012.8 1012.7 0.0
25/04:30am 23.9 26.3 20.8 83 2.0 S 9 13 5 7 1012.8 1012.7 0.0
25/04:00am 24.0 26.3 20.7 82 2.2 SSE 9 11 5 6 1012.7 1012.6 0.0
25/03:30am 24.3 26.7 20.8 81 2.3 SSE 9 13 5 7 1012.8 1012.7 0.0
25/03:00am 24.4 26.8 20.9 81 2.3 S 9 11 5 6 1012.7 1012.6 0.0
25/02:30am 24.5 27.0 21.0 81 2.3 SSE 9 13 5 7 1012.6 1012.5 0.0
25/02:00am 25.2 28.2 21.3 79 2.6 S 7 9 4 5 1012.5 1012.4 0.0
25/01:30am 25.9 29.3 21.6 77 2.9 SE 6 9 3 5 1012.8 1012.7 0.0
25/01:00am 26.2 29.6 21.6 76 3.1 SE 6 7 3 4 1013.1 1013.0 0.0
25/12:30am 26.5 31.2 21.9 76 3.1 CALM 0 6 0 3 1013.4 1013.3 0.0
25/12:00am 26.7 30.6 21.9 75 3.2 SE 4 7 2 4 1013.7 1013.6 0.0
 
Date/Time
EST
Temp
°C
App
Temp
°C
Dew
Point
°C
Rel
Hum
%
Delta-T
°C
Wind Press
QNH
hPa
Press
MSL
hPa
Rain since
9am
mm
Dir  Spd
km/h
Gust
km/h
Spd
kts
Gust
kts
24/11:30pm 26.6 30.2 22.0 76 3.1 E 6 9 3 5 1013.8 1013.7 0.0
24/11:00pm 26.9 30.2 21.9 74 3.3 ESE 7 11 4 6 1014.0 1013.9 0.0
24/10:30pm 27.1 30.4 21.8 73 3.5 ESE 7 9 4 5 1014.0 1013.9 0.0
24/10:00pm 27.2 30.5 21.9 73 3.6 ENE 7 11 4 6 1014.0 1013.9 0.0
24/09:30pm 27.3 30.8 21.8 72 3.7 ENE 6 11 3 6 1013.9 1013.8 0.0
24/09:00pm 27.7 30.4 22.2 72 3.7 NE 11 17 6 9 1013.8 1013.7 0.0
24/08:30pm 28.0 30.9 22.5 72 3.7 NE 11 17 6 9 1013.8 1013.7 0.0
24/08:00pm 28.1 30.8 22.1 70 4.0 NE 11 17 6 9 1013.5 1013.4 0.0
24/07:30pm 28.4 30.5 22.4 70 4.1 NE 15 20 8 11 1013.2 1013.1 0.0
24/07:00pm 28.6 31.2 23.3 73 3.6 NNE 15 20 8 11 1013.1 1013.0 0.0
24/06:30pm 28.5 30.5 23.0 72 3.8 NNE 17 24 9 13 1012.9 1012.8 0.0
24/06:00pm 28.9 30.4 23.1 71 4.0 N 20 32 11 17 1012.5 1012.4 0.0
24/05:30pm 29.5 30.8 22.7 67 4.6 NNE 20 30 11 16 1012.2 1012.1 0.0
24/05:00pm 29.9 30.6 22.3 63 5.2 NNE 22 30 12 16 1011.8 1011.7 0.0
24/04:30pm 31.2 31.9 22.2 58 6.1 NNE 22 28 12 15 1011.7 1011.6 0.0
24/04:00pm 32.4 33.6 22.2 55 7.0 NNE 19 26 10 14 1011.6 1011.5 0.0
24/03:30pm 31.0 30.9 21.5 57 6.4 NNE 24 32 13 17 1011.6 1011.5 0.0
24/03:00pm 32.0 32.3 21.5 53 7.1 NNE 22 30 12 16 1011.7 1011.6 0.0
24/02:30pm 31.9 32.4 21.1 52 7.2 NE 20 28 11 15 1012.1 1012.0 0.0
24/02:00pm 32.1 32.2 20.4 50 7.8 NE 20 32 11 17 1012.4 1012.3 0.0
24/01:30pm 30.9 31.4 21.1 56 6.6 NNE 20 32 11 17 1012.6 1012.5 0.0
24/01:00pm 31.7 33.2 20.6 51 7.4 NNE 13 19 7 10 1013.0 1012.9 0.0
24/12:30pm 32.5 33.9 18.7 44 9.0 S 9 17 5 9 1013.4 1013.3 0.0
24/12:00pm 33.0 35.0 19.1 43 9.1 SSE 7 17 4 9 1014.0 1013.9 0.0
24/11:30am 31.5 33.0 18.8 46 8.3 SSE 9 17 5 9 1014.4 1014.3 0.0
24/11:00am 31.3 32.4 19.6 49 7.7 E 13 20 7 11 1014.9 1014.8 0.0
24/10:30am 29.9 31.1 19.9 55 6.6 ESE 13 20 7 11 1015.4 1015.3 0.0
24/10:00am 29.9 30.6 19.6 54 6.7 SE 15 20 8 11 1015.5 1015.4 0.0
24/09:30am 29.6 30.3 20.5 58 6.0 SE 17 30 9 16 1015.6 1015.5 0.0
24/09:00am 28.5 29.5 20.2 60 5.4 SE 15 26 8 14 1015.6 1015.5 0.0
24/08:30am 27.8 29.2 20.4 64 4.9 SSE 13 22 7 12 1015.6 1015.5 0.0
24/08:00am 27.4 28.6 20.7 67 4.4 S 15 22 8 12 1015.6 1015.5 0.0
24/07:30am 26.3 27.8 20.6 71 3.7 S 13 17 7 9 1015.6 1015.5 0.0
24/07:00am 24.6 26.7 20.9 80 2.4 S 11 17 6 9 1015.3 1015.2 0.0
24/06:30am 23.1 24.8 20.2 84 1.9 S 11 13 6 7 1015.2 1015.1 0.0
24/06:00am 22.6 24.6 19.9 85 1.7 S 9 13 5 7 1015.0 1014.9 0.0
24/05:30am 22.8 25.2 20.0 84 1.8 S 7 9 4 5 1014.6 1014.5 0.0
24/05:00am 22.7 25.2 19.9 84 1.8 S 6 7 3 4 1014.6 1014.5 0.0
24/04:30am 22.5 26.1 19.7 84 1.8 CALM 0 0 0 0 1014.5 1014.4 0.0
24/04:00am 23.4 27.1 20.0 81 2.2 CALM 0 0 0 0 1014.4 1014.3 0.0
24/03:30am 23.3 27.1 20.1 82 2.1 CALM 0 0 0 0 1014.4 1014.3 0.0
24/03:00am 24.3 28.0 20.0 77 2.8 CALM 0 6 0 3 1014.2 1014.1 0.0
24/02:30am 24.7 27.4 20.2 76 2.9 S 6 7 3 4 1014.4 1014.3 0.0
24/02:00am 24.4 26.9 19.9 76 2.9 S 6 7 3 4 1014.7 1014.6 0.0
24/01:30am 24.2 26.7 19.9 77 2.8 SSW 6 7 3 4 1015.0 1014.9 0.0
24/01:00am 24.5 28.2 20.0 76 2.9 CALM 0 0 0 0 1015.3 1015.2 0.0
24/12:30am 24.7 27.4 20.2 76 2.9 SSW 6 7 3 4 1015.7 1015.6 0.0
24/12:00am 25.2 28.4 20.5 75 3.1 SSE 4 7 2 4 1015.7 1015.6 0.0
 
Date/Time
EST
Temp
°C
App
Temp
°C
Dew
Point
°C
Rel
Hum
%
Delta-T
°C
Wind Press
QNH
hPa
Press
MSL
hPa
Rain since
9am
mm
Dir  Spd
km/h
Gust
km/h
Spd
kts
Gust
kts
23/11:30pm 25.2 28.5 20.7 76 2.9 SE 4 7 2 4 1015.8 1015.7 0.0
23/11:00pm 25.9 30.0 20.7 73 3.4 CALM 0 0 0 0 1015.7 1015.6 0.0
23/10:30pm 26.6 30.0 20.9 71 3.8 NE 4 7 2 4 1015.7 1015.6 0.0
23/10:00pm 27.0 29.4 20.8 69 4.1 ENE 9 11 5 6 1015.7 1015.6 0.0
23/09:30pm 27.4 29.4 20.7 67 4.4 E 11 17 6 9 1015.7 1015.6 0.0
23/09:00pm 27.7 30.6 21.0 67 4.4 ENE 7 13 4 7 1015.4 1015.3 0.0
23/08:30pm 27.9 30.5 21.2 67 4.5 NE 9 13 5 7 1015.0 1014.9 0.0

Other Formats:

Comma delimited format used in spreadsheet applications
http://www.bom.gov.au/fwo/IDQ60801/IDQ60801.95369.axf

JavaScript Object Notation format (JSON) in row-major order
http://www.bom.gov.au/fwo/IDQ60801/IDQ60801.95369.json